Time;durP1;ratioP1;P1;durP2;ratioP2;P2;SDS_P1;SDS_P2;PMS_P1;PMS_P2;Temp;Humidity;BMP_temperature;BMP_pressure;BME280_temperature;BME280_humidity;BME280_pressure;Samples;Min_cycle;Max_cycle;Signal;HPM_P1;HPM_P2
2020/12/22 00:05:31;;;;;;;51.87;32.10;;;;;;;2.19;85.92;100038.38;518255;1096;65201;-65
2020/12/22 00:15:35;;;;;;;51.07;32.93;;;;;;;2.15;86.10;100031.57;517846;1090;65157;-65
2020/12/22 00:25:45;;;;;;;48.80;32.23;;;;;;;2.29;86.01;100028.65;517228;1096;65182;-68
2020/12/22 00:35:49;;;;;;;45.65;30.55;;;;;;;2.39;85.76;100026.72;516933;1095;65527;-66
2020/12/22 00:45:53;;;;;;;42.87;29.23;;;;;;;2.42;85.04;100010.22;518839;1090;65185;-66
2020/12/22 00:56:03;;;;;;;52.40;30.57;;;;;;;2.35;85.15;99992.23;517566;1095;65178;-66
2020/12/22 01:06:07;;;;;;;50.57;32.30;;;;;;;2.36;85.50;99982.70;517619;1095;65422;-66
2020/12/22 01:16:12;;;;;;;50.03;31.77;;;;;;;2.51;85.27;99984.95;518358;1095;65583;-65
2020/12/22 01:26:22;;;;;;;44.83;26.97;;;;;;;2.61;85.07;99971.77;517788;1095;65533;-65
2020/12/22 01:36:27;;;;;;;44.35;28.85;;;;;;;2.58;84.79;99966.62;517408;1096;65521;-66
2020/12/22 01:46:34;;;;;;;46.10;29.05;;;;;;;2.56;84.92;99950.27;517368;1095;65310;-66
2020/12/22 01:56:39;;;;;;;39.20;26.93;;;;;;;2.60;84.47;99932.01;517456;1095;65181;-66
2020/12/22 02:06:44;;;;;;;41.03;27.97;;;;;;;2.66;84.50;99925.81;517449;1097;65250;-66
2020/12/22 02:16:48;;;;;;;40.83;25.53;;;;;;;2.67;84.49;99904.17;517595;1095;65165;-65
2020/12/22 02:27:03;;;;;;;36.43;23.40;;;;;;;2.69;84.50;99884.23;517381;1095;65159;-66
2020/12/22 02:37:08;;;;;;;41.30;24.35;;;;;;;2.64;84.18;99847.22;517864;1095;65181;-66
2020/12/22 02:47:12;;;;;;;36.47;22.63;;;;;;;;;;517668;1095;65175;-66
2020/12/22 02:57:16;;;;;;;32.97;22.47;;;;;;;2.41;84.14;99860.78;517561;1095;65601;-66
2020/12/22 03:07:20;;;;;;;33.73;21.87;;;;;;;2.31;84.11;99858.45;517860;1095;65233;-65
2020/12/22 03:17:24;;;;;;;32.70;19.73;;;;;;;2.20;84.21;99845.75;517686;1095;65907;-66
2020/12/22 03:27:37;;;;;;;33.77;20.47;;;;;;;2.05;84.28;99804.70;517740;1095;65536;-66
2020/12/22 03:37:42;;;;;;;34.87;22.77;;;;;;;1.92;84.31;99802.42;517471;1095;65285;-65
2020/12/22 03:47:47;;;;;;;38.40;23.27;;;;;;;1.87;84.41;99775.77;517879;1090;65176;-66
2020/12/22 03:58:01;;;;;;;37.17;24.00;;;;;;;1.72;84.46;99763.22;517134;1096;65502;-67
2020/12/22 04:08:05;;;;;;;41.03;26.90;;;;;;;1.55;84.27;99764.47;517745;1095;65264;-66
2020/12/22 04:18:09;;;;;;;44.70;28.63;;;;;;;1.40;84.65;99732.89;517930;1095;65252;-65
2020/12/22 04:28:17;;;;;;;42.13;26.63;;;;;;;1.42;85.28;99732.00;517465;1095;65157;-66
2020/12/22 04:38:21;;;;;;;44.10;26.30;;;;;;;1.44;84.71;99720.74;517745;1095;65188;-65
2020/12/22 04:48:26;;;;;;;42.30;27.95;;;;;;;1.58;84.83;99730.77;517619;1095;65150;-65
2020/12/22 04:58:38;;;;;;;46.67;28.27;;;;;;;1.64;84.69;99712.47;517244;1090;65185;-66
2020/12/22 05:08:43;;;;;;;47.50;32.25;;;;;;;1.58;84.29;99693.66;517669;1095;65191;-67
2020/12/22 05:18:53;;;;;;;44.83;29.07;;;;;;;1.51;84.73;99669.67;517325;1095;65182;-66
2020/12/22 05:29:09;;;;;;;46.87;29.63;;;;;;;1.46;84.60;99643.08;517153;1097;65376;-66
2020/12/22 05:39:14;;;;;;;44.90;29.10;;;;;;;1.42;84.13;99612.97;517457;1090;65587;-67
2020/12/22 05:49:22;;;;;;;50.83;33.03;;;;;;;1.28;84.26;99605.59;517429;1095;65511;-66
2020/12/22 05:59:25;;;;;;;48.03;34.23;;;;;;;1.25;84.16;99596.99;517797;1095;65179;-66
2020/12/22 06:09:30;;;;;;;50.93;34.23;;;;;;;1.20;84.20;99575.58;517442;1090;65185;-66
2020/12/22 06:19:37;;;;;;;49.00;33.23;;;;;;;1.14;84.44;99570.55;517122;1095;65221;-65
2020/12/22 06:29:43;;;;;;;46.05;31.90;;;;;;;1.07;83.88;99544.00;517332;1095;65262;-66
2020/12/22 06:39:49;;;;;;;47.93;32.65;;;;;;;0.99;84.62;99530.44;517208;1090;65157;-68
2020/12/22 06:49:54;;;;;;;40.20;27.57;;;;;;;1.05;84.20;99526.84;517303;1095;65175;-67
2020/12/22 07:00:01;;;;;;;53.07;30.87;;;;;;;1.19;84.10;99505.77;517503;1097;65272;-66
2020/12/22 07:10:06;;;;;;;44.10;27.55;;;;;;;1.28;84.41;99495.19;517869;1090;65511;-66
2020/12/22 07:20:10;;;;;;;43.90;27.15;;;;;;;1.33;83.80;99474.36;517178;1090;65185;-66
2020/12/22 07:30:18;;;;;;;43.67;27.50;;;;;;;1.37;84.00;99445.78;517138;1095;65229;-66
2020/12/22 07:40:22;;;;;;;44.37;27.77;;;;;;;1.40;83.75;99437.91;517758;1097;65185;-67
2020/12/22 07:50:25;;;;;;;43.87;26.97;;;;;;;1.45;83.94;99424.84;517310;1095;65156;-66
2020/12/22 08:00:32;;;;;;;36.53;26.17;;;;;;;1.53;84.13;99415.13;517452;1095;65573;-66
2020/12/22 08:10:38;;;;;;;42.60;26.63;;;;;;;1.61;84.33;99401.95;517337;1095;65153;-66
2020/12/22 08:20:43;;;;;;;41.07;26.60;;;;;;;1.70;83.94;99389.63;508553;1090;10001989;-67
2020/12/22 08:30:53;;;;;;;40.93;28.20;;;;;;;1.79;84.58;99371.20;516520;1090;65256;-64
2020/12/22 08:41:12;;;;;;;43.23;28.17;;;;;;;1.82;84.78;99356.42;516852;1095;65179;-58
2020/12/22 08:51:28;;;;;;;34.90;24.73;;;;;;;1.98;84.90;99353.36;516604;1090;65220;-65
2020/12/22 09:01:41;;;;;;;31.40;22.33;;;;;;;2.10;85.01;99346.91;516588;1096;65156;-64
2020/12/22 09:11:45;;;;;;;36.10;24.63;;;;;;;2.21;84.87;99334.45;516680;1095;65362;-63
2020/12/22 09:22:02;;;;;;;33.93;22.00;;;;;;;2.36;85.28;99321.86;526061;1096;65181;-64
2020/12/22 09:32:08;;;;;;;46.90;26.60;;;;;;;2.46;85.79;99307.69;517585;1096;65239;-65
2020/12/22 09:42:14;;;;;;;33.93;20.40;;;;;;;2.53;85.98;99279.80;517253;1090;65147;-64
2020/12/22 09:52:18;;;;;;;38.17;20.20;;;;;;;2.63;86.09;99262.19;517441;1095;65594;-63
2020/12/22 10:02:22;;;;;;;30.70;19.00;;;;;;;2.60;85.59;99237.22;517189;1095;65172;-64
2020/12/22 10:12:28;;;;;;;31.23;20.80;;;;;;;2.64;86.17;99224.99;517131;1090;65816;-68
2020/12/22 10:22:32;;;;;;;30.63;17.60;;;;;;;2.70;86.37;99226.52;517367;1095;65141;-71
2020/12/22 10:32:36;;;;;;;28.53;17.67;;;;;;;2.77;86.17;99204.61;517472;1096;65245;-67
2020/12/22 10:42:40;;;;;;;25.97;18.93;;;;;;;2.86;86.52;99208.63;517860;1097;65256;-65
2020/12/22 10:52:45;;;;;;;30.93;21.10;;;;;;;2.94;86.75;99173.70;517751;1095;65259;-64
2020/12/22 11:02:53;;;;;;;24.77;16.80;;;;;;;3.09;86.63;99148.05;517708;1090;65735;-65
2020/12/22 11:12:57;;;;;;;16.30;11.23;;;;;;;3.22;86.55;99130.24;517962;1095;65621;-66
2020/12/22 11:23:01;;;;;;;17.97;13.10;;;;;;;3.34;87.23;99118.49;517897;1095;65897;-67
2020/12/22 11:33:05;;;;;;;17.35;10.55;;;;;;;3.43;86.99;99099.95;517687;1090;65377;-67
2020/12/22 11:43:12;;;;;;;17.07;11.60;;;;;;;3.51;86.75;99099.61;517615;1095;65158;-69
2020/12/22 11:53:16;;;;;;;17.07;10.87;;;;;;;3.60;86.76;99086.23;517588;1095;65207;-62
2020/12/22 12:03:20;;;;;;;14.80;10.70;;;;;;;3.69;86.70;99073.77;517499;1095;65545;-65
2020/12/22 12:13:24;;;;;;;16.30;10.60;;;;;;;3.69;86.94;99050.41;517384;1095;65217;-67
2020/12/22 12:23:30;;;;;;;19.20;12.03;;;;;;;3.69;87.11;99034.82;517381;1095;65258;-67
2020/12/22 12:33:35;;;;;;;17.10;11.37;;;;;;;3.75;87.40;99017.21;517338;1097;65390;-69
2020/12/22 12:43:39;;;;;;;17.53;13.03;;;;;;;3.84;87.27;99015.12;517393;1095;65198;-68
2020/12/22 12:53:44;;;;;;;16.53;10.50;;;;;;;3.88;87.26;99014.91;517624;1095;65146;-68
2020/12/22 13:03:50;;;;;;;22.20;13.27;;;;;;;3.96;88.00;99008.50;517775;1095;65173;-66
2020/12/22 13:13:54;;;;;;;13.37;8.97;;;;;;;3.99;87.34;99004.02;517664;1090;65274;-65
2020/12/22 13:23:58;;;;;;;14.95;9.70;;;;;;;4.00;87.30;99003.09;517296;1095;65562;-63
2020/12/22 13:34:09;;;;;;;13.40;8.13;;;;;;;4.04;87.61;99001.20;517190;1097;65252;-66
2020/12/22 13:44:13;;;;;;;12.43;8.87;;;;;;;4.01;88.14;98994.38;517627;1090;65175;-67
2020/12/22 13:54:16;;;;;;;14.07;8.67;;;;;;;4.04;88.06;98993.41;517608;1095;65826;-60
2020/12/22 14:04:32;;;;;;;9.33;7.10;;;;;;;4.08;87.61;98986.31;508765;1095;10001227;-62
2020/12/22 14:14:36;;;;;;;11.10;7.60;;;;;;;4.13;88.45;98992.98;517193;1090;65612;-62
2020/12/22 14:24:43;;;;;;;11.63;7.73;;;;;;;4.22;88.41;98989.09;517025;1095;65521;-61
2020/12/22 14:34:52;;;;;;;9.47;8.20;;;;;;;4.34;88.91;98991.11;516705;1096;65150;-62
2020/12/22 14:44:56;;;;;;;12.83;8.90;;;;;;;4.44;88.79;98985.47;517608;1095;65323;-61
2020/12/22 14:55:00;;;;;;;11.13;6.93;;;;;;;4.56;88.13;98966.67;518054;1095;65269;-62
2020/12/22 15:05:14;;;;;;;14.15;7.70;;;;;;;4.68;88.34;98973.04;517359;1095;65174;-61
2020/12/22 15:15:18;;;;;;;12.40;8.20;;;;;;;4.76;88.76;98970.05;516813;1097;65319;-60
2020/12/22 15:25:22;;;;;;;15.73;9.40;;;;;;;4.85;88.58;98973.94;516793;1095;65354;-62
2020/12/22 15:35:29;;;;;;;9.28;7.60;;;;;;;4.92;88.49;98983.13;517105;1095;65255;-60
2020/12/22 15:45:33;;;;;;;9.30;7.30;;;;;;;5.00;88.91;98974.94;517048;1095;65293;-60
2020/12/22 15:55:37;;;;;;;12.20;7.25;;;;;;;5.04;88.74;98964.29;517547;1090;65229;-61
2020/12/22 16:05:52;;;;;;;11.40;7.67;;;;;;;5.12;88.95;98960.43;517969;1095;65153;-61
2020/12/22 16:15:56;;;;;;;16.37;9.67;;;;;;;5.14;88.63;98949.03;517812;1095;65240;-60
2020/12/22 16:26:17;;;;;;;11.63;7.90;;;;;;;5.20;89.04;98945.27;517344;1095;65525;-61
2020/12/22 16:36:26;;;;;;;12.58;8.33;;;;;;;5.31;89.33;98939.52;517357;1095;65159;-62
2020/12/22 16:46:31;;;;;;;9.93;6.97;;;;;;;5.42;89.37;98944.97;517477;1095;65179;-61
2020/12/22 16:56:35;;;;;;;8.33;6.43;;;;;;;5.51;89.47;98935.84;517549;1095;65175;-61
2020/12/22 17:06:40;;;;;;;8.70;6.43;;;;;;;5.62;89.31;98958.69;517599;1095;65163;-61
2020/12/22 17:16:44;;;;;;;6.80;5.40;;;;;;;5.71;89.54;98954.74;517872;1095;65768;-62
2020/12/22 17:26:48;;;;;;;9.17;6.20;;;;;;;5.79;89.68;98949.14;517255;1095;65223;-62
2020/12/22 17:36:53;;;;;;;10.57;7.73;;;;;;;5.83;89.49;98951.50;517270;1095;65246;-61
2020/12/22 17:46:59;;;;;;;13.15;8.65;;;;;;;5.94;89.36;98950.04;508292;1095;10001321;-60
2020/12/22 17:57:03;;;;;;;11.03;8.03;;;;;;;5.98;89.45;98946.36;516670;1095;65153;-62
2020/12/22 18:07:07;;;;;;;10.83;7.23;;;;;;;6.08;89.64;98957.98;516683;1090;65783;-60
2020/12/22 18:17:11;;;;;;;18.60;13.73;;;;;;;6.25;89.74;98943.16;516645;1097;65155;-65
2020/12/22 18:27:15;;;;;;;8.97;6.60;;;;;;;6.36;89.64;98942.56;516727;1095;65207;-62
2020/12/22 18:37:21;;;;;;;13.40;8.30;;;;;;;6.51;89.54;98944.28;516539;1097;65290;-69
2020/12/22 18:47:28;;;;;;;38.60;21.00;;;;;;;6.61;89.41;98941.97;516915;1090;65654;-70
2020/12/22 18:57:32;;;;;;;12.70;9.83;;;;;;;6.67;89.37;98928.58;516917;1095;65226;-70
2020/12/22 19:07:37;;;;;;;15.60;9.87;;;;;;;6.60;89.39;98950.72;516694;1090;65204;-70
2020/12/22 19:17:42;;;;;;;13.65;9.90;;;;;;;6.61;89.17;98941.14;516681;1090;65264;-69
2020/12/22 19:27:46;;;;;;;9.83;7.13;;;;;;;6.68;89.40;98958.09;517250;1095;65248;-70
2020/12/22 19:37:56;;;;;;;23.53;12.50;;;;;;;6.75;89.64;98967.27;517172;1096;65508;-71
2020/12/22 19:47:59;;;;;;;;;;;;;;;6.83;89.23;98974.64;516938;1095;65252;-70
2020/12/22 19:58:03;;;;;;;13.40;10.30;;;;;;;6.94;89.55;98976.63;516962;1096;65232;-71
2020/12/22 20:08:11;;;;;;;26.17;11.83;;;;;;;7.08;89.22;98978.41;516756;1096;65228;-66
2020/12/22 20:18:15;;;;;;;14.03;9.10;;;;;;;7.18;89.69;98978.72;516574;1095;65254;-69
2020/12/22 20:28:20;;;;;;;18.73;10.27;;;;;;;7.22;89.19;98990.64;516739;1095;65173;-66
2020/12/22 20:38:33;;;;;;;14.13;8.50;;;;;;;7.22;89.74;98995.87;517049;1097;65223;-67
2020/12/22 20:48:37;;;;;;;14.47;9.93;;;;;;;7.27;90.08;98999.88;517116;1097;66041;-66
2020/12/22 20:58:41;;;;;;;9.93;8.17;;;;;;;7.37;89.91;98994.94;517248;1090;65533;-66
2020/12/22 21:08:49;;;;;;;10.03;7.67;;;;;;;7.48;90.17;98998.67;516606;1095;65176;-66
2020/12/22 21:18:53;;;;;;;8.50;7.37;;;;;;;7.62;90.04;99010.91;516915;1095;65173;-66
2020/12/22 21:28:57;;;;;;;8.70;5.70;;;;;;;7.92;90.81;99021.23;516768;1097;65150;-66
2020/12/22 21:39:09;;;;;;;8.20;5.63;;;;;;;8.16;90.08;99020.63;516798;1097;65176;-66
2020/12/22 21:49:13;;;;;;;6.53;5.93;;;;;;;8.27;90.54;99026.02;517074;1095;65232;-66
2020/12/22 21:59:17;;;;;;;11.17;7.10;;;;;;;8.37;90.12;99026.29;517121;1096;65686;-66
2020/12/22 22:09:29;;;;;;;9.47;7.40;;;;;;;8.43;90.03;99027.67;517557;1090;65277;-65
2020/12/22 22:19:33;;;;;;;8.77;7.70;;;;;;;8.44;89.99;99037.20;516936;1095;65640;-66
2020/12/22 22:29:38;;;;;;;8.73;6.77;;;;;;;8.49;90.46;99039.52;516432;1095;65182;-65
2020/12/22 22:39:46;;;;;;;8.10;7.30;;;;;;;8.52;90.54;99042.79;516605;1090;65242;-65
2020/12/22 22:49:51;;;;;;;8.07;6.37;;;;;;;8.55;90.22;99058.31;517188;1090;65697;-61
2020/12/22 22:59:56;;;;;;;7.37;6.07;;;;;;;8.57;89.54;99063.43;517019;1095;65179;-63
2020/12/22 23:10:05;;;;;;;8.57;6.60;;;;;;;8.52;89.70;99097.73;516787;1095;65315;-63
2020/12/22 23:20:10;;;;;;;8.63;6.80;;;;;;;8.55;90.17;99104.56;516694;1090;65584;-63
2020/12/22 23:30:14;;;;;;;12.73;7.97;;;;;;;8.53;89.92;99109.88;516950;1095;65525;-63
2020/12/22 23:40:35;;;;;;;7.97;7.13;;;;;;;8.54;89.68;99115.97;517002;1095;65258;-63
2020/12/22 23:50:39;;;;;;;7.50;6.87;;;;;;;8.49;89.68;99118.02;517050;1095;65178;-62
